createdAt,value
2023-04-18T00:01:50.216Z,70.70
2023-04-18T00:04:51.978Z,70.90
2023-04-18T00:07:53.713Z,70.90
2023-04-18T00:10:55.370Z,70.80
2023-04-18T00:13:57.446Z,70.70
2023-04-18T00:16:59.198Z,70.70
2023-04-18T00:20:04.887Z,70.80
2023-04-18T00:23:07.762Z,71.00
2023-04-18T00:26:09.484Z,71.10
2023-04-18T00:29:11.487Z,71.40
2023-04-18T00:32:13.948Z,71.60
2023-04-18T00:35:15.845Z,71.80
2023-04-18T00:38:17.484Z,71.60
2023-04-18T00:41:19.832Z,71.40
2023-04-18T00:44:21.471Z,71.30
2023-04-18T00:47:23.173Z,71.80
2023-04-18T00:50:24.914Z,72.00
2023-04-18T00:53:26.712Z,72.10
2023-04-18T00:56:28.843Z,72.30
2023-04-18T00:59:30.465Z,72.30
2023-04-18T01:02:33.575Z,72.20
2023-04-18T01:05:36.285Z,72.20
2023-04-18T01:08:38.045Z,72.50
2023-04-18T01:11:39.806Z,72.70
2023-04-18T01:14:42.839Z,72.90
2023-04-18T01:17:44.553Z,72.80
2023-04-18T01:20:47.768Z,72.90
2023-04-18T01:23:49.437Z,72.90
2023-04-18T01:26:51.137Z,73.20
2023-04-18T01:29:52.808Z,73.40
2023-04-18T01:32:54.615Z,73.40
2023-04-18T01:35:56.258Z,73.20
2023-04-18T01:38:58.603Z,73.20
2023-04-18T01:42:01.952Z,73.30
2023-04-18T01:45:04.591Z,73.50
2023-04-18T01:48:06.440Z,73.60
2023-04-18T01:51:08.093Z,73.80
2023-04-18T01:54:09.808Z,73.90
2023-04-18T01:57:11.439Z,74.00
2023-04-18T02:00:13.566Z,74.00
2023-04-18T02:03:15.413Z,74.20
2023-04-18T02:06:17.173Z,74.30
2023-04-18T02:09:18.803Z,74.40
2023-04-18T02:12:20.952Z,74.60
2023-04-18T02:15:24.508Z,74.70
2023-04-18T02:18:27.073Z,74.90
2023-04-18T02:21:30.233Z,74.80
2023-04-18T02:24:31.872Z,75.00
2023-04-18T02:27:33.534Z,75.00
2023-04-18T02:30:35.341Z,75.10
2023-04-18T02:33:37.013Z,75.20
2023-04-18T02:36:38.686Z,75.30
2023-04-18T02:39:40.452Z,75.40
2023-04-18T02:42:42.085Z,75.30
2023-04-18T02:45:43.811Z,75.30
2023-04-18T02:48:45.559Z,75.40
2023-04-18T02:51:47.237Z,75.40
2023-04-18T02:54:48.908Z,75.50
2023-04-18T02:57:50.579Z,75.50
2023-04-18T03:00:56.166Z,75.50
2023-04-18T03:03:57.882Z,75.40
2023-04-18T03:06:59.538Z,75.50
2023-04-18T03:10:01.172Z,75.50
2023-04-18T03:13:02.916Z,75.60
2023-04-18T03:16:04.993Z,75.70
2023-04-18T03:19:06.634Z,75.70
2023-04-18T03:22:09.119Z,75.70
2023-04-18T03:25:11.202Z,75.70
2023-04-18T03:28:12.920Z,75.60
2023-04-18T03:31:14.616Z,75.70
2023-04-18T03:34:16.365Z,75.60
2023-04-18T03:37:18.037Z,75.70
2023-04-18T03:40:19.726Z,75.80
2023-04-18T03:43:21.374Z,75.60
2023-04-18T03:46:24.592Z,75.50
2023-04-18T03:49:26.324Z,75.60
2023-04-18T03:52:29.706Z,75.50
2023-04-18T03:55:31.559Z,75.60
2023-04-18T03:58:33.216Z,75.70
2023-04-18T04:01:34.922Z,75.70
2023-04-18T04:04:37.051Z,75.80
2023-04-18T04:07:38.785Z,75.80
2023-04-18T04:10:40.499Z,76.00
2023-04-18T04:13:42.232Z,76.00
2023-04-18T04:16:44.019Z,76.10
2023-04-18T04:19:45.677Z,76.10
2023-04-18T04:22:47.356Z,76.10
2023-04-18T04:25:49.017Z,76.20
2023-04-18T04:28:51.651Z,76.40
2023-04-18T04:31:53.396Z,76.50
2023-04-18T04:34:56.208Z,76.70
2023-04-18T04:37:58.867Z,76.80
2023-04-18T04:41:00.707Z,77.00
2023-04-18T04:44:02.369Z,77.20
2023-04-18T04:47:04.076Z,77.30
2023-04-18T04:50:07.727Z,77.50
2023-04-18T04:53:09.421Z,77.60
2023-04-18T04:56:11.145Z,77.70
2023-04-18T04:59:12.958Z,77.90
2023-04-18T05:02:14.870Z,77.90
2023-04-18T05:05:16.645Z,77.90
2023-04-18T05:08:18.348Z,77.90
2023-04-18T05:11:21.009Z,77.90
2023-04-18T05:14:22.904Z,77.80
2023-04-18T05:17:24.670Z,77.70
2023-04-18T05:20:26.312Z,77.60
2023-04-18T05:23:27.966Z,77.60
2023-04-18T05:26:29.611Z,77.60
2023-04-18T05:29:31.268Z,77.60
2023-04-18T05:32:33.098Z,77.80
2023-04-18T05:35:34.855Z,77.80
2023-04-18T05:38:36.536Z,77.90
2023-04-18T05:41:38.276Z,77.90
2023-04-18T05:44:39.958Z,78.00
2023-04-18T05:47:41.723Z,78.10
2023-04-18T05:50:43.392Z,78.20
2023-04-18T05:53:45.077Z,78.20
2023-04-18T05:56:46.717Z,78.10
2023-04-18T05:59:48.637Z,78.00
2023-04-18T06:02:50.841Z,78.00
2023-04-18T06:05:52.715Z,78.10
2023-04-18T06:08:54.567Z,78.20
2023-04-18T06:11:57.805Z,78.20
2023-04-18T06:14:59.550Z,78.20
2023-04-18T06:18:01.389Z,78.10
2023-04-18T06:21:03.112Z,78.00
2023-04-18T06:24:04.919Z,78.00
2023-04-18T06:30:09.449Z,78.10
2023-04-18T06:33:11.317Z,78.20
2023-04-18T06:36:13.100Z,78.00
2023-04-18T06:39:14.913Z,77.90
2023-04-18T06:42:16.560Z,77.80
2023-04-18T06:45:18.281Z,77.60
2023-04-18T06:48:19.956Z,77.70
2023-04-18T06:51:21.655Z,77.60
2023-04-18T06:54:23.381Z,77.60
2023-04-18T06:57:26.021Z,77.60
2023-04-18T07:00:27.773Z,77.60
2023-04-18T07:03:29.598Z,77.60
2023-04-18T07:06:32.803Z,77.30
2023-04-18T07:09:34.459Z,77.20
2023-04-18T07:12:36.343Z,76.80
2023-04-18T07:15:38.172Z,76.70
2023-04-18T07:18:39.838Z,76.50
2023-04-18T07:21:43.640Z,76.30
2023-04-18T07:24:45.501Z,76.10
2023-04-18T07:27:48.509Z,76.00
2023-04-18T07:30:50.276Z,75.80
2023-04-18T07:33:52.315Z,75.50
2023-04-18T07:36:53.992Z,75.40
2023-04-18T07:39:55.678Z,75.10
2023-04-18T07:42:57.381Z,74.80
2023-04-18T07:45:59.181Z,74.40
2023-04-18T07:49:02.340Z,74.20
2023-04-18T07:52:04.307Z,74.20
2023-04-18T07:55:06.762Z,74.20
2023-04-18T07:58:08.891Z,73.90
2023-04-18T08:01:14.004Z,73.70
2023-04-18T08:04:15.784Z,73.20
2023-04-18T08:07:17.805Z,72.70
2023-04-18T08:10:20.913Z,72.00
2023-04-18T08:13:24.225Z,71.60
2023-04-18T08:16:26.304Z,71.40
2023-04-18T08:19:28.139Z,70.90
2023-04-18T08:22:29.844Z,70.60
2023-04-18T08:25:31.757Z,70.10
2023-04-18T08:28:33.597Z,69.20
2023-04-18T08:31:35.323Z,68.80
2023-04-18T08:34:38.052Z,68.40
2023-04-18T08:37:39.786Z,67.80
2023-04-18T08:40:41.646Z,66.50
2023-04-18T08:43:47.290Z,65.90
2023-04-18T08:46:48.998Z,64.30
2023-04-18T08:49:52.195Z,63.50
2023-04-18T08:52:54.293Z,63.40
2023-04-18T08:55:57.331Z,63.40
2023-04-18T08:59:00.369Z,63.40
2023-04-18T09:02:03.372Z,63.50
2023-04-18T09:05:11.765Z,63.70
2023-04-18T09:08:24.237Z,63.30
2023-04-18T09:11:28.826Z,62.90
2023-04-18T09:14:32.850Z,62.80
2023-04-18T09:17:42.263Z,63.20
2023-04-18T09:20:44.571Z,63.20
2023-04-18T09:23:47.437Z,63.40
2023-04-18T09:26:54.005Z,63.30
2023-04-18T09:29:57.823Z,63.40
2023-04-18T09:33:00.403Z,63.40
2023-04-18T09:36:24.985Z,63.50
2023-04-18T09:39:27.127Z,63.60
2023-04-18T09:42:29.765Z,63.70
2023-04-18T09:45:31.414Z,63.80
2023-04-18T09:48:33.074Z,64.00
2023-04-18T09:51:34.811Z,64.10
2023-04-18T09:54:36.480Z,64.20
2023-04-18T09:57:41.222Z,64.20
2023-04-18T10:00:44.978Z,64.40
2023-04-18T10:03:48.559Z,64.40
2023-04-18T10:06:51.407Z,64.80
2023-04-18T10:09:53.225Z,65.00
2023-04-18T10:12:57.048Z,64.90
2023-04-18T10:15:58.761Z,64.70
2023-04-18T10:19:19.905Z,64.50
2023-04-18T10:22:26.720Z,64.30
2023-04-18T10:25:40.985Z,64.10
2023-04-18T10:28:53.496Z,63.90
2023-04-18T10:31:55.675Z,63.70
2023-04-18T10:34:59.083Z,63.30
2023-04-18T10:38:00.738Z,62.90
2023-04-18T10:41:25.415Z,62.50
2023-04-18T10:44:27.558Z,62.20
2023-04-18T10:47:29.427Z,62.00
2023-04-18T10:50:31.223Z,61.70
2023-04-18T10:53:32.918Z,61.50
2023-04-18T10:56:34.636Z,61.50
2023-04-18T10:59:41.388Z,61.50
2023-04-18T11:02:50.914Z,61.40
2023-04-18T11:05:52.635Z,61.50
2023-04-18T11:09:11.856Z,61.30
2023-04-18T11:12:13.501Z,61.50
2023-04-18T11:15:24.841Z,61.60
2023-04-18T11:18:26.499Z,61.40
2023-04-18T11:21:30.461Z,61.40
2023-04-18T11:24:32.701Z,61.20
2023-04-18T11:27:34.448Z,60.70
2023-04-18T11:30:37.580Z,60.50
2023-04-18T11:33:39.529Z,60.50
2023-04-18T11:36:42.183Z,60.80
2023-04-18T11:39:44.545Z,61.20
2023-04-18T11:42:46.250Z,61.40
2023-04-18T11:45:54.989Z,61.70
2023-04-18T11:48:56.830Z,62.10
2023-04-18T11:52:01.524Z,62.40
2023-04-18T11:55:23.170Z,62.50
2023-04-18T11:58:31.921Z,62.20
2023-04-18T12:01:33.584Z,61.80
2023-04-18T12:04:59.533Z,61.60
2023-04-18T12:08:18.513Z,61.80
2023-04-18T12:11:21.550Z,62.30
2023-04-18T12:14:23.261Z,62.80
2023-04-18T12:17:28.578Z,63.00
2023-04-18T12:20:37.881Z,63.00
2023-04-18T12:23:40.346Z,63.20
2023-04-18T12:26:45.679Z,63.40
2023-04-18T12:29:47.306Z,63.60
2023-04-18T12:32:55.167Z,63.70
2023-04-18T12:35:57.398Z,63.80
2023-04-18T12:38:59.115Z,63.90
2023-04-18T12:42:00.956Z,63.90
2023-04-18T12:45:07.556Z,63.70
2023-04-18T12:48:09.447Z,63.60
2023-04-18T12:51:11.129Z,63.60
2023-04-18T12:54:13.003Z,63.80
2023-04-18T12:57:14.783Z,64.20
2023-04-18T13:00:16.515Z,64.50
2023-04-18T13:03:18.439Z,64.80
2023-04-18T13:06:20.365Z,65.10
2023-04-18T13:09:22.135Z,65.50
2023-04-18T13:12:23.768Z,66.10
2023-04-18T13:15:27.251Z,66.60
2023-04-18T13:18:29.057Z,66.70
2023-04-18T13:21:31.268Z,66.70
2023-04-18T13:24:32.996Z,66.90
2023-04-18T13:27:34.661Z,67.20
2023-04-18T13:30:36.463Z,67.30
2023-04-18T13:33:39.438Z,67.20
2023-04-18T13:36:41.124Z,67.10
2023-04-18T13:39:43.418Z,66.80
2023-04-18T13:42:45.167Z,66.50
2023-04-18T13:45:47.117Z,66.20
2023-04-18T13:48:48.842Z,66.10
2023-04-18T13:51:53.327Z,65.70
2023-04-18T13:54:55.190Z,65.40
2023-04-18T13:57:56.913Z,65.30
2023-04-18T14:00:58.611Z,65.50
2023-04-18T14:04:00.784Z,65.60
2023-04-18T14:07:06.292Z,65.60
2023-04-18T14:10:08.420Z,65.60
2023-04-18T14:13:10.099Z,65.50
2023-04-18T14:16:11.883Z,65.30
2023-04-18T14:19:13.992Z,65.30
2023-04-18T14:22:15.804Z,65.10
2023-04-18T14:25:17.706Z,65.00
2023-04-18T14:28:23.596Z,65.00
2023-04-18T14:31:25.989Z,65.00
2023-04-18T14:34:27.709Z,65.20
2023-04-18T14:37:29.371Z,65.20
2023-04-18T14:40:32.736Z,65.10
2023-04-18T14:43:34.776Z,65.10
2023-04-18T14:46:36.677Z,64.90
2023-04-18T14:49:38.412Z,64.60
2023-04-18T14:52:40.459Z,64.40
2023-04-18T14:55:42.274Z,64.20
2023-04-18T14:58:44.950Z,64.00
2023-04-18T15:01:46.748Z,63.90
2023-04-18T15:04:48.970Z,63.80
2023-04-18T15:07:53.656Z,63.80
2023-04-18T15:10:55.281Z,64.00
2023-04-18T15:13:57.186Z,64.20
2023-04-18T15:16:59.834Z,64.50
2023-04-18T15:20:01.952Z,64.60
2023-04-18T15:23:03.765Z,64.80
2023-04-18T15:26:06.124Z,65.10
2023-04-18T15:29:07.886Z,65.30
2023-04-18T15:32:10.175Z,65.60
2023-04-18T15:35:12.130Z,66.00
2023-04-18T15:38:13.951Z,66.10
2023-04-18T15:41:18.505Z,66.30
2023-04-18T15:44:23.739Z,66.50
2023-04-18T15:47:27.076Z,66.60
2023-04-18T15:50:28.991Z,66.50
2023-04-18T15:53:31.549Z,66.50
2023-04-18T15:56:33.869Z,66.40
2023-04-18T15:59:36.162Z,66.50
2023-04-18T16:02:37.894Z,66.50
2023-04-18T16:05:39.603Z,66.50
2023-04-18T16:08:41.388Z,66.50
2023-04-18T16:11:43.064Z,66.30
2023-04-18T16:14:44.839Z,66.40
2023-04-18T16:17:47.623Z,66.50
2023-04-18T16:20:49.480Z,66.20
2023-04-18T16:23:51.134Z,66.00
2023-04-18T16:26:53.532Z,66.00
2023-04-18T16:29:55.174Z,65.90
2023-04-18T16:32:57.002Z,66.00
2023-04-18T16:36:02.399Z,66.00
2023-04-18T16:39:04.769Z,65.90
2023-04-18T16:42:06.484Z,66.00
2023-04-18T16:45:08.511Z,66.10
2023-04-18T16:48:10.290Z,66.10
2023-04-18T16:51:13.133Z,66.30
2023-04-18T16:54:14.891Z,66.40
2023-04-18T16:57:17.749Z,66.50
2023-04-18T17:00:19.435Z,66.60
2023-04-18T17:03:21.255Z,66.90
2023-04-18T17:06:24.987Z,67.00
2023-04-18T17:09:26.786Z,67.10
2023-04-18T17:12:28.422Z,67.20
2023-04-18T17:15:30.709Z,67.10
2023-04-18T17:18:32.587Z,67.00
2023-04-18T17:21:34.974Z,67.00
2023-04-18T17:24:36.662Z,66.80
2023-04-18T17:27:40.243Z,66.80
2023-04-18T17:30:42.102Z,66.90
2023-04-18T17:33:44.508Z,67.00
2023-04-18T17:36:46.631Z,67.10
2023-04-18T17:39:49.284Z,67.30
2023-04-18T17:42:51.049Z,67.40
2023-04-18T17:45:52.938Z,67.50
2023-04-18T17:48:54.665Z,67.50
2023-04-18T17:51:56.318Z,67.50
2023-04-18T17:54:59.026Z,67.50
2023-04-18T17:58:00.687Z,67.60
2023-04-18T18:01:02.482Z,67.60
2023-04-18T18:04:04.438Z,67.60
2023-04-18T18:07:06.218Z,67.70
2023-04-18T18:10:08.896Z,67.70
2023-04-18T18:13:10.561Z,67.80
2023-04-18T18:16:12.760Z,68.00
2023-04-18T18:19:15.044Z,68.10
2023-04-18T18:22:17.730Z,68.20
2023-04-18T18:25:20.638Z,68.20
2023-04-18T18:28:22.341Z,68.30
2023-04-18T18:31:24.919Z,68.60
2023-04-18T18:34:27.676Z,68.90
2023-04-18T18:37:29.336Z,69.30
2023-04-18T18:40:30.992Z,69.50
2023-04-18T18:43:32.671Z,69.70
2023-04-18T18:46:35.318Z,70.00
2023-04-18T18:49:37.431Z,70.30
2023-04-18T18:52:40.818Z,70.50
2023-04-18T18:55:42.636Z,70.70
2023-04-18T18:58:44.365Z,70.90
2023-04-18T19:01:46.490Z,71.00
2023-04-18T19:04:48.334Z,71.10
2023-04-18T19:07:51.429Z,71.20
2023-04-18T19:10:53.119Z,71.30
2023-04-18T19:13:54.938Z,71.50
2023-04-18T19:16:57.935Z,71.70
2023-04-18T19:20:01.328Z,72.00
2023-04-18T19:23:03.086Z,72.10
2023-04-18T19:26:05.771Z,72.30
2023-04-18T19:29:07.837Z,72.30
2023-04-18T19:32:09.814Z,72.40
2023-04-18T19:35:13.211Z,72.50
2023-04-18T19:38:15.654Z,72.70
2023-04-18T19:41:17.376Z,72.70
2023-04-18T19:44:19.021Z,72.70
2023-04-18T19:47:22.590Z,72.70
2023-04-18T19:50:24.474Z,72.90
2023-04-18T19:53:26.227Z,72.90
2023-04-18T19:56:28.085Z,73.00
2023-04-18T19:59:29.784Z,72.80
2023-04-18T20:02:31.565Z,72.80
2023-04-18T20:05:33.382Z,72.60
2023-04-18T20:08:41.344Z,72.50
2023-04-18T20:11:43.495Z,72.50
2023-04-18T20:14:45.220Z,72.50
2023-04-18T20:17:47.031Z,72.50
2023-04-18T20:20:48.689Z,72.60
2023-04-18T20:23:50.447Z,72.60
2023-04-18T20:26:52.301Z,72.60
2023-04-18T20:29:56.039Z,72.80
2023-04-18T20:32:58.890Z,72.90
2023-04-18T20:36:00.924Z,73.00
2023-04-18T20:39:03.411Z,73.00
2023-04-18T20:42:05.296Z,73.00
2023-04-18T20:45:10.873Z,73.00
2023-04-18T20:48:12.669Z,73.10
2023-04-18T20:51:14.434Z,73.10
2023-04-18T20:54:16.505Z,73.20
2023-04-18T20:57:19.374Z,73.30
2023-04-18T21:00:21.099Z,73.20
2023-04-18T21:03:22.913Z,73.20
2023-04-18T21:06:24.961Z,73.30
2023-04-18T21:09:26.653Z,73.40
2023-04-18T21:12:28.351Z,73.50
2023-04-18T21:15:31.127Z,73.50
2023-04-18T21:18:32.915Z,73.50
2023-04-18T21:21:34.834Z,73.60
2023-04-18T21:24:36.499Z,73.60
2023-04-18T21:27:38.220Z,73.70
2023-04-18T21:30:39.894Z,73.80
2023-04-18T21:33:41.534Z,73.90
2023-04-18T21:36:43.315Z,74.00
2023-04-18T21:39:45.164Z,74.10
2023-04-18T21:42:48.678Z,74.10
2023-04-18T21:45:51.538Z,74.20
2023-04-18T21:48:53.192Z,74.30
2023-04-18T21:51:55.037Z,74.30
2023-04-18T21:54:56.837Z,74.40
2023-04-18T21:57:59.061Z,74.40
2023-04-18T22:01:00.837Z,74.50
2023-04-18T22:04:02.898Z,74.70
2023-04-18T22:07:04.715Z,74.80
2023-04-18T22:10:07.977Z,75.00
2023-04-18T22:13:10.016Z,75.00
2023-04-18T22:16:12.015Z,75.20
2023-04-18T22:19:14.106Z,75.40
2023-04-18T22:22:15.833Z,75.70
2023-04-18T22:25:17.629Z,75.90
2023-04-18T22:28:19.696Z,76.20
2023-04-18T22:31:21.447Z,76.50
2023-04-18T22:34:23.142Z,76.70
2023-04-18T22:37:24.814Z,76.90
2023-04-18T22:40:26.994Z,77.00
2023-04-18T22:43:28.687Z,77.10
2023-04-18T22:46:30.531Z,77.10
2023-04-18T22:49:33.254Z,77.30
2023-04-18T22:52:34.992Z,77.40
2023-04-18T22:55:43.919Z,77.60
2023-04-18T22:58:45.659Z,77.80
2023-04-18T23:01:47.337Z,77.90
2023-04-18T23:04:49.459Z,78.10
2023-04-18T23:07:51.601Z,78.30
2023-04-18T23:10:53.235Z,78.30
2023-04-18T23:13:54.885Z,78.40
2023-04-18T23:16:56.806Z,78.60
2023-04-18T23:19:58.461Z,78.70
2023-04-18T23:23:00.560Z,78.90
2023-04-18T23:26:02.346Z,79.00
2023-04-18T23:29:04.053Z,79.20
2023-04-18T23:32:06.306Z,79.20
2023-04-18T23:35:08.366Z,79.30
2023-04-18T23:38:10.161Z,79.30
2023-04-18T23:41:11.847Z,79.30
2023-04-18T23:44:13.830Z,79.20
2023-04-18T23:47:17.157Z,79.30
2023-04-18T23:50:19.016Z,79.30
2023-04-18T23:53:21.396Z,79.40
2023-04-18T23:56:23.270Z,79.40
2023-04-18T23:59:24.994Z,79.30
